createdAt,value
2022-10-28T00:01:17.310Z,98044.81
2022-10-28T00:06:24.166Z,98040.00
2022-10-28T00:11:29.548Z,98047.75
2022-10-28T00:16:34.306Z,98049.03
2022-10-28T00:21:40.889Z,98047.25
2022-10-28T00:26:46.034Z,98044.19
2022-10-28T00:31:49.562Z,98053.28
2022-10-28T00:36:54.326Z,98057.41
2022-10-28T00:42:03.629Z,98054.47
2022-10-28T00:47:14.280Z,98044.06
2022-10-28T00:52:23.066Z,98041.56
2022-10-28T00:57:31.991Z,98040.47
2022-10-28T01:02:43.615Z,98036.50
2022-10-28T01:07:48.853Z,98043.78
2022-10-28T01:13:05.552Z,98042.91
2022-10-28T01:18:15.235Z,98037.41
2022-10-28T01:23:26.368Z,98034.91
2022-10-28T01:28:54.257Z,98033.38
2022-10-28T01:34:11.397Z,98034.03
2022-10-28T01:39:25.475Z,98024.91
2022-10-28T01:44:35.473Z,98025.44
2022-10-28T01:49:45.583Z,98031.63
2022-10-28T01:54:52.743Z,98019.22
2022-10-28T01:59:57.141Z,98018.88
2022-10-28T02:05:38.986Z,98018.38
2022-10-28T02:10:52.186Z,98004.06
2022-10-28T02:16:03.923Z,98005.25
2022-10-28T02:21:18.351Z,98004.19
2022-10-28T02:26:25.308Z,98009.88
2022-10-28T02:31:33.226Z,98009.63
2022-10-28T02:36:41.819Z,98011.78
2022-10-28T02:41:51.653Z,98003.22
2022-10-28T02:46:58.138Z,98003.06
2022-10-28T02:52:07.349Z,97998.63
2022-10-28T02:57:14.972Z,97997.06
2022-10-28T03:02:18.396Z,97991.25
2022-10-28T03:07:23.557Z,97986.31
2022-10-28T03:12:27.107Z,97983.31
2022-10-28T03:17:30.540Z,97975.34
2022-10-28T03:22:35.262Z,97977.03
2022-10-28T03:27:40.983Z,97970.63
2022-10-28T03:32:44.331Z,97978.72
2022-10-28T03:37:49.128Z,97968.09
2022-10-28T03:42:52.840Z,97978.09
2022-10-28T03:47:56.561Z,97987.47
2022-10-28T03:53:01.557Z,97996.28
2022-10-28T03:58:05.018Z,97989.22
2022-10-28T04:03:08.454Z,97990.81
2022-10-28T04:08:13.152Z,98000.50
2022-10-28T04:13:17.802Z,98007.19
2022-10-28T04:18:21.236Z,98003.31
2022-10-28T04:23:25.999Z,98001.81
2022-10-28T04:28:35.300Z,97998.03
2022-10-28T04:33:38.673Z,98012.88
2022-10-28T04:38:43.502Z,98009.34
2022-10-28T04:43:46.765Z,97997.00
2022-10-28T04:48:49.983Z,98003.19
2022-10-28T04:53:57.432Z,98005.38
2022-10-28T04:59:01.301Z,98010.56
2022-10-28T05:04:05.173Z,98014.19
2022-10-28T05:09:10.026Z,98011.16
2022-10-28T05:14:13.441Z,98013.84
2022-10-28T05:19:16.759Z,98012.56
2022-10-28T05:24:21.423Z,98010.44
2022-10-28T05:29:25.726Z,98006.31
2022-10-28T05:34:31.112Z,98003.38
2022-10-28T05:39:35.893Z,98003.47
2022-10-28T05:44:39.394Z,98000.31
2022-10-28T05:49:42.785Z,98006.56
2022-10-28T05:54:47.610Z,97996.13
2022-10-28T05:59:51.035Z,98004.72
2022-10-28T06:04:54.435Z,98010.84
2022-10-28T06:09:59.227Z,98003.13
2022-10-28T06:15:01.238Z,98004.03
2022-10-28T06:20:06.340Z,98003.94
2022-10-28T06:25:11.000Z,98007.19
2022-10-28T06:30:14.579Z,98009.91
2022-10-28T06:35:19.584Z,98004.22
2022-10-28T06:40:25.748Z,98012.66
2022-10-28T06:45:30.574Z,98019.13
2022-10-28T06:50:36.764Z,98010.66
2022-10-28T06:55:41.519Z,98002.69
2022-10-28T07:00:44.919Z,97990.09
2022-10-28T07:05:49.254Z,97988.03
2022-10-28T07:10:58.513Z,97981.13
2022-10-28T07:16:02.512Z,97967.03
2022-10-28T07:21:06.280Z,97976.69
2022-10-28T07:26:11.009Z,97974.19
2022-10-28T07:31:14.646Z,97967.69
2022-10-28T07:36:18.297Z,97970.06
2022-10-28T07:41:24.374Z,97971.97
2022-10-28T07:46:27.702Z,97971.00
2022-10-28T07:51:31.229Z,97970.81
2022-10-28T07:56:36.281Z,97961.75
2022-10-28T08:01:39.984Z,97972.97
2022-10-28T08:06:44.398Z,97961.69
2022-10-28T08:11:49.888Z,97963.16
2022-10-28T08:16:53.259Z,97956.41
2022-10-28T08:21:57.060Z,97955.00
2022-10-28T08:27:02.857Z,97950.50
2022-10-28T08:32:09.091Z,97939.78
2022-10-28T08:37:12.625Z,97937.09
2022-10-28T08:42:43.669Z,97938.22
2022-10-28T08:47:59.081Z,97937.56
2022-10-28T08:53:11.360Z,97939.97
2022-10-28T08:58:21.380Z,97941.66
2022-10-28T09:03:27.588Z,97940.19
2022-10-28T09:08:35.223Z,97942.06
2022-10-28T09:14:06.189Z,97945.44
2022-10-28T09:19:17.220Z,97934.56
2022-10-28T09:24:25.373Z,97934.19
2022-10-28T09:29:44.493Z,97933.03
2022-10-28T09:34:51.931Z,97928.72
2022-10-28T09:39:58.640Z,97927.41
2022-10-28T09:45:06.209Z,97927.97
2022-10-28T09:50:18.718Z,97929.16
2022-10-28T09:55:24.316Z,97927.09
2022-10-28T10:00:30.062Z,97936.16
2022-10-28T10:05:39.031Z,97916.72
2022-10-28T10:10:49.786Z,97921.41
2022-10-28T10:16:01.372Z,97908.53
2022-10-28T10:21:06.400Z,97920.53
2022-10-28T10:26:12.986Z,97912.84
2022-10-28T10:31:22.512Z,97923.03
2022-10-28T10:36:29.173Z,97923.97
2022-10-28T10:41:37.339Z,97931.59
2022-10-28T10:46:42.160Z,97933.44
2022-10-28T10:51:52.795Z,97940.28
2022-10-28T10:57:07.171Z,97940.03
2022-10-28T11:02:24.415Z,97947.28
2022-10-28T11:07:29.852Z,97942.16
2022-10-28T11:12:35.733Z,97943.81
2022-10-28T11:17:40.654Z,97948.59
2022-10-28T11:22:55.251Z,97938.81
2022-10-28T11:28:21.506Z,97938.38
2022-10-28T11:33:35.508Z,97933.03
2022-10-28T11:38:56.494Z,97925.97
2022-10-28T11:44:04.917Z,97909.84
2022-10-28T11:49:30.392Z,97912.97
2022-10-28T11:54:49.447Z,97906.53
2022-10-28T12:00:10.985Z,97911.34
2022-10-28T12:05:21.610Z,97904.84
2022-10-28T12:10:41.295Z,97896.94
2022-10-28T12:15:53.329Z,97890.47
2022-10-28T12:21:03.707Z,97890.59
2022-10-28T12:26:12.682Z,97879.53
2022-10-28T12:31:23.061Z,97883.56
2022-10-28T12:36:35.626Z,97882.22
2022-10-28T12:41:48.532Z,97892.41
2022-10-28T12:47:05.396Z,97879.06
2022-10-28T12:52:23.317Z,97875.34
2022-10-28T12:57:30.056Z,97869.41
2022-10-28T13:02:39.479Z,97870.16
2022-10-28T13:08:00.293Z,97878.41
2022-10-28T13:13:22.677Z,97868.66
2022-10-28T13:19:05.923Z,97857.34
2022-10-28T13:24:21.121Z,97858.84
2022-10-28T13:29:27.622Z,97851.84
2022-10-28T13:34:34.440Z,97852.13
2022-10-28T13:39:44.909Z,97840.44
2022-10-28T13:44:50.128Z,97834.16
2022-10-28T13:50:23.901Z,97842.00
2022-10-28T13:55:44.452Z,97825.38
2022-10-28T14:00:52.217Z,97822.66
2022-10-28T14:05:59.212Z,97824.66
2022-10-28T14:11:07.326Z,97838.06
2022-10-28T14:16:23.961Z,97834.56
2022-10-28T14:21:41.368Z,97822.22
2022-10-28T14:27:30.809Z,97825.59
2022-10-28T14:32:46.250Z,97816.25
2022-10-28T14:38:40.832Z,97821.34
2022-10-28T14:44:01.876Z,97821.22
2022-10-28T14:49:18.211Z,97813.63
2022-10-28T14:54:33.388Z,97825.84
2022-10-28T14:59:41.378Z,97821.34
2022-10-28T15:04:48.233Z,97817.28
2022-10-28T15:09:53.640Z,97820.72
2022-10-28T15:14:58.388Z,97816.72
2022-10-28T15:20:20.487Z,97814.91
2022-10-28T15:25:24.010Z,97810.94
2022-10-28T15:30:27.539Z,97809.47
2022-10-28T15:35:42.298Z,97812.53
2022-10-28T15:40:45.767Z,97811.34
2022-10-28T15:45:49.229Z,97800.66
2022-10-28T15:51:16.539Z,97818.75
2022-10-28T15:56:24.880Z,97811.63
2022-10-28T16:01:31.595Z,97806.22
2022-10-28T16:06:37.997Z,97817.06
2022-10-28T16:11:44.613Z,97809.59
2022-10-28T16:16:48.286Z,97802.66
2022-10-28T16:21:53.246Z,97800.97
2022-10-28T16:27:14.454Z,97802.31
2022-10-28T16:32:20.484Z,97804.59
2022-10-28T16:37:27.039Z,97792.66
2022-10-28T16:42:30.616Z,97813.34
2022-10-28T16:47:34.134Z,97811.50
2022-10-28T16:52:38.923Z,97814.16
2022-10-28T16:57:42.175Z,97811.47
2022-10-28T17:02:47.245Z,97816.84
2022-10-28T17:07:56.014Z,97812.16
2022-10-28T17:13:00.048Z,97829.81
2022-10-28T17:18:03.715Z,97817.56
2022-10-28T17:23:08.580Z,97816.47
2022-10-28T17:28:11.935Z,97820.81
2022-10-28T17:33:15.372Z,97823.66
2022-10-28T17:38:20.712Z,97833.22
2022-10-28T17:43:24.499Z,97844.13
2022-10-28T17:48:28.495Z,97844.25
2022-10-28T17:53:33.951Z,97841.94
2022-10-28T17:58:37.372Z,97842.78
2022-10-28T18:03:40.765Z,97835.97
2022-10-28T18:08:45.754Z,97847.06
2022-10-28T18:13:52.802Z,97849.41
2022-10-28T18:18:56.427Z,97849.56
2022-10-28T18:24:04.541Z,97845.28
2022-10-28T18:29:10.498Z,97856.22
2022-10-28T18:34:14.015Z,97841.63
2022-10-28T18:39:18.780Z,97864.63
2022-10-28T18:44:27.080Z,97853.25
2022-10-28T18:49:30.960Z,97863.63
2022-10-28T18:54:35.865Z,97861.78
2022-10-28T18:59:52.368Z,97869.03
2022-10-28T19:05:02.596Z,97871.09
2022-10-28T19:10:07.901Z,97885.22
2022-10-28T19:15:11.504Z,97888.25
2022-10-28T19:20:15.061Z,97886.25
2022-10-28T19:25:20.494Z,97888.59
2022-10-28T19:30:24.308Z,97882.19
2022-10-28T19:35:27.651Z,97893.41
2022-10-28T19:40:32.427Z,97895.09
2022-10-28T19:45:35.803Z,97898.41
2022-10-28T19:50:39.126Z,97917.88
2022-10-28T19:55:43.839Z,97918.38
2022-10-28T20:00:47.228Z,97923.03
2022-10-28T20:05:50.702Z,97927.19
2022-10-28T20:11:03.505Z,97927.25
2022-10-28T20:16:09.031Z,97936.84
2022-10-28T20:21:14.299Z,97932.53
2022-10-28T20:26:19.400Z,97944.19
2022-10-28T20:31:24.923Z,97930.44
2022-10-28T20:36:29.641Z,97929.75
2022-10-28T20:41:37.342Z,97934.16
2022-10-28T20:46:41.540Z,97930.28
2022-10-28T20:51:45.010Z,97933.06
2022-10-28T20:56:49.784Z,97946.47
2022-10-28T21:01:53.070Z,97938.88
2022-10-28T21:06:56.584Z,97944.31
2022-10-28T21:12:01.343Z,97939.94
2022-10-28T21:17:04.753Z,97943.03
2022-10-28T21:22:08.264Z,97947.22
2022-10-28T21:27:13.118Z,97945.56
2022-10-28T21:32:16.562Z,97935.75
2022-10-28T21:37:21.142Z,97944.03
2022-10-28T21:42:26.004Z,97949.47
2022-10-28T21:47:29.636Z,97948.19
2022-10-28T21:52:33.069Z,97957.16
2022-10-28T21:57:38.026Z,97955.03
2022-10-28T22:02:41.520Z,97948.84
2022-10-28T22:07:45.274Z,97958.09
2022-10-28T22:12:50.138Z,97958.41
2022-10-28T22:17:53.784Z,97962.06
2022-10-28T22:22:57.558Z,97964.91
2022-10-28T22:28:02.509Z,97979.22
2022-10-28T22:33:05.996Z,97977.41
2022-10-28T22:38:09.335Z,97978.69
2022-10-28T22:43:13.990Z,97974.72
2022-10-28T22:48:17.312Z,97977.25
2022-10-28T22:53:21.028Z,97977.53
2022-10-28T22:58:28.841Z,97978.34
2022-10-28T23:03:36.139Z,97983.41
2022-10-28T23:08:40.817Z,97990.41
2022-10-28T23:13:45.492Z,97991.84
2022-10-28T23:18:49.095Z,97986.50
2022-10-28T23:23:54.332Z,97988.16
2022-10-28T23:29:00.529Z,97986.53
2022-10-28T23:34:03.847Z,97998.88
2022-10-28T23:39:07.214Z,97999.31
2022-10-28T23:44:11.931Z,97992.13
2022-10-28T23:49:15.188Z,97989.28
2022-10-28T23:54:18.489Z,97993.38
2022-10-28T23:59:23.209Z,97979.09
